New Pittsburgh, Ohio
Current Conditions -  °F | °C
As of 10:52 PM on Friday 28 Nov 2014 (Local Time) from KMFD Reporting Station
Overcast Overcast  
Wind Chill: 17°   Ceiling: 6500
Heat Index: 28°   Visibility: 10mi
Dew Point: 19°   Wind: 13mph
Humidity: 69%   Direction: 170°S
Pressure: 30.1"   Gusts: NA
Location:  40.9918°N, 82.6827°W
Report Text: KMFD 290352Z 17011KT 10SM BKN065 OVC100 M02/M07 A3010 RMK AO2 SLP207 T10221072
Loading
Personal Weather Stations






























Interactive Weather Map New forecast layout! Learn more

10-Day Weather Forecast

Advertisements
Track Severe Weather on mobile